Millau, France

6:46 PM CEST on September 01, 2015 (GMT +0200)
Aigoual | | Change Station
CLOSE
Current Station
Personal Weather Station
Location: Meyrueis, LOZERE
Elevation: 2398 ft
Nearby Weather Stations

Elev 2398 ft 44.18 °N, 3.43 °E | Updated 2 minutes ago

Scattered Clouds
Scattered Clouds
66.4 °F
Feels Like 66.4 °F
N
0.0
Wind Variable Wind from NE
Gusts 0.0 mph

Today
High -- | Low -- °F
--% Chance of Precip.
Yesterday
High -- | Low -- °F
Precip. -- in
7:10 AM 8:24 PM
Waning Gibbous, 88% visible
Pressure 30.09 in
Visibility 6.2 miles
Clouds Scattered Clouds 3400 ft
Dew Point 56 °F
Humidity 68%
Rainfall 0.16 in
Snow Depth Not available.
UV 1 out of 12
Pollen Not available.
Air Quality Not available.
Flu Activity Not available.
METAR LFCR 011630Z AUTO 32010KT 9999 SCT034 20/12 Q1019
Pressure 30.09 in
Visibility 6.2 miles
Clouds Scattered Clouds 3400 ft
Dew Point 56 °F
Humidity 68%
Rainfall 0.16 in
Snow Depth Not available.
UV 1 out of 12
Pollen Not available.
Air Quality Not available.
Flu Activity Not available.
METAR LFCR 011630Z AUTO 32010KT 9999 SCT034 20/12 Q1019

10-Day Weather Forecast

×

Almanac

Astronomy

Sep. 01, 2015 Rise Set
Actual Time
Civil Twilight
Nautical Twilight
Astronomical Twilight
Moon
Length of Visible Light
Length of Day
Tomorrow will be .
, % of the Moon is Illuminated

Today's Extremes

Country Highs Country Lows

Community

WunderPhotos

Upload Photos

1,851,555 photos uploaded!

WunderBlogs® & News

Nearby

Air Quality

  Air Quality AQ Index Pollutant
Not available.

Snow Depth

Station Depth Elevation

Earthquake Activity

City Distance Mag. Time & Date
Minimum magnitude displayed is 2.5.

Coastal Water Temperatures

Place Temperature

Stations

Nearby Weather Stations

Station Location Temp. Windchill Dew Point Humidity Wind Precip. Elev Updated Type